sensor_id;sensor_type;location;lat;lon;timestamp;P1;durP1;ratioP1;P2;durP2;ratioP2
45198;SDS011;30941;46.422;18.772;2023-02-23T00:01:53;51.78;;;27.60;;
45198;SDS011;30941;46.422;18.772;2023-02-23T00:04:21;47.83;;;24.85;;
45198;SDS011;30941;46.422;18.772;2023-02-23T00:06:47;53.17;;;26.33;;
45198;SDS011;30941;46.422;18.772;2023-02-23T00:09:13;50.60;;;25.92;;
45198;SDS011;30941;46.422;18.772;2023-02-23T00:11:50;50.55;;;24.95;;
45198;SDS011;30941;46.422;18.772;2023-02-23T00:14:17;51.20;;;26.45;;
45198;SDS011;30941;46.422;18.772;2023-02-23T00:16:43;52.60;;;28.27;;
45198;SDS011;30941;46.422;18.772;2023-02-23T00:19:11;54.42;;;26.83;;
45198;SDS011;30941;46.422;18.772;2023-02-23T00:21:38;54.17;;;25.83;;
45198;SDS011;30941;46.422;18.772;2023-02-23T00:26:33;47.50;;;24.98;;
45198;SDS011;30941;46.422;18.772;2023-02-23T00:29:04;47.47;;;25.65;;
45198;SDS011;30941;46.422;18.772;2023-02-23T00:31:31;54.80;;;26.52;;
45198;SDS011;30941;46.422;18.772;2023-02-23T00:33:58;60.30;;;26.10;;
45198;SDS011;30941;46.422;18.772;2023-02-23T00:36:26;54.95;;;26.63;;
45198;SDS011;30941;46.422;18.772;2023-02-23T00:39:03;55.20;;;24.88;;
45198;SDS011;30941;46.422;18.772;2023-02-23T00:41:44;54.25;;;26.83;;
45198;SDS011;30941;46.422;18.772;2023-02-23T00:44:10;48.58;;;24.23;;
45198;SDS011;30941;46.422;18.772;2023-02-23T00:46:39;45.85;;;25.70;;
45198;SDS011;30941;46.422;18.772;2023-02-23T00:49:05;50.78;;;25.17;;
45198;SDS011;30941;46.422;18.772;2023-02-23T00:51:31;51.15;;;24.88;;
45198;SDS011;30941;46.422;18.772;2023-02-23T00:53:58;47.22;;;24.27;;
45198;SDS011;30941;46.422;18.772;2023-02-23T00:56:24;45.20;;;24.52;;
45198;SDS011;30941;46.422;18.772;2023-02-23T00:58:50;49.17;;;25.02;;
45198;SDS011;30941;46.422;18.772;2023-02-23T01:01:15;48.83;;;24.80;;
45198;SDS011;30941;46.422;18.772;2023-02-23T01:03:42;50.05;;;25.38;;
45198;SDS011;30941;46.422;18.772;2023-02-23T01:06:08;52.25;;;24.35;;
45198;SDS011;30941;46.422;18.772;2023-02-23T01:08:37;49.45;;;25.13;;
45198;SDS011;30941;46.422;18.772;2023-02-23T01:11:09;45.80;;;22.25;;
45198;SDS011;30941;46.422;18.772;2023-02-23T01:13:36;46.65;;;24.38;;
45198;SDS011;30941;46.422;18.772;2023-02-23T01:16:03;41.03;;;22.88;;
45198;SDS011;30941;46.422;18.772;2023-02-23T01:18:31;46.20;;;24.10;;
45198;SDS011;30941;46.422;18.772;2023-02-23T01:20:58;45.75;;;24.05;;
45198;SDS011;30941;46.422;18.772;2023-02-23T01:23:24;49.97;;;24.73;;
45198;SDS011;30941;46.422;18.772;2023-02-23T01:25:49;46.42;;;25.00;;
45198;SDS011;30941;46.422;18.772;2023-02-23T01:28:15;44.45;;;24.17;;
45198;SDS011;30941;46.422;18.772;2023-02-23T01:30:40;47.92;;;24.00;;
45198;SDS011;30941;46.422;18.772;2023-02-23T01:33:05;43.75;;;24.77;;
45198;SDS011;30941;46.422;18.772;2023-02-23T01:35:31;44.35;;;24.50;;
45198;SDS011;30941;46.422;18.772;2023-02-23T01:37:57;49.95;;;24.58;;
45198;SDS011;30941;46.422;18.772;2023-02-23T01:40:23;49.85;;;25.08;;
45198;SDS011;30941;46.422;18.772;2023-02-23T01:48:03;41.28;;;24.00;;
45198;SDS011;30941;46.422;18.772;2023-02-23T01:50:56;50.35;;;25.10;;
45198;SDS011;30941;46.422;18.772;2023-02-23T01:53:28;49.92;;;25.13;;
45198;SDS011;30941;46.422;18.772;2023-02-23T01:55:58;46.58;;;24.73;;
45198;SDS011;30941;46.422;18.772;2023-02-23T01:58:26;46.13;;;26.48;;
45198;SDS011;30941;46.422;18.772;2023-02-23T02:00:52;44.88;;;24.70;;
45198;SDS011;30941;46.422;18.772;2023-02-23T02:03:25;45.85;;;25.05;;
45198;SDS011;30941;46.422;18.772;2023-02-23T02:05:54;51.33;;;25.85;;
45198;SDS011;30941;46.422;18.772;2023-02-23T02:08:20;47.35;;;24.98;;
45198;SDS011;30941;46.422;18.772;2023-02-23T02:10:48;45.38;;;26.35;;
45198;SDS011;30941;46.422;18.772;2023-02-23T02:13:20;46.40;;;25.70;;
45198;SDS011;30941;46.422;18.772;2023-02-23T02:32:47;48.28;;;26.13;;
45198;SDS011;30941;46.422;18.772;2023-02-23T02:43:34;49.53;;;29.08;;
45198;SDS011;30941;46.422;18.772;2023-02-23T02:51:53;54.00;;;28.73;;
45198;SDS011;30941;46.422;18.772;2023-02-23T02:56:56;59.63;;;29.98;;
45198;SDS011;30941;46.422;18.772;2023-02-23T02:59:24;53.70;;;29.85;;
45198;SDS011;30941;46.422;18.772;2023-02-23T03:02:12;50.08;;;28.77;;
45198;SDS011;30941;46.422;18.772;2023-02-23T03:05:13;47.97;;;26.65;;
45198;SDS011;30941;46.422;18.772;2023-02-23T03:08:06;50.92;;;29.42;;
45198;SDS011;30941;46.422;18.772;2023-02-23T03:26:15;44.83;;;25.27;;
45198;SDS011;30941;46.422;18.772;2023-02-23T03:29:08;47.60;;;26.90;;
45198;SDS011;30941;46.422;18.772;2023-02-23T03:32:15;54.05;;;29.35;;
45198;SDS011;30941;46.422;18.772;2023-02-23T03:35:06;56.25;;;28.90;;
45198;SDS011;30941;46.422;18.772;2023-02-23T03:37:55;61.60;;;30.13;;
45198;SDS011;30941;46.422;18.772;2023-02-23T03:40:42;56.10;;;30.60;;
45198;SDS011;30941;46.422;18.772;2023-02-23T03:43:31;60.55;;;34.22;;
45198;SDS011;30941;46.422;18.772;2023-02-23T03:46:18;57.70;;;30.38;;
45198;SDS011;30941;46.422;18.772;2023-02-23T03:49:03;66.05;;;34.47;;
45198;SDS011;30941;46.422;18.772;2023-02-23T03:51:50;61.53;;;32.42;;
45198;SDS011;30941;46.422;18.772;2023-02-23T03:54:50;68.10;;;31.77;;
45198;SDS011;30941;46.422;18.772;2023-02-23T03:57:38;60.58;;;31.67;;
45198;SDS011;30941;46.422;18.772;2023-02-23T04:00:26;59.88;;;32.53;;
45198;SDS011;30941;46.422;18.772;2023-02-23T04:03:14;56.42;;;30.42;;
45198;SDS011;30941;46.422;18.772;2023-02-23T04:05:59;56.67;;;32.38;;
45198;SDS011;30941;46.422;18.772;2023-02-23T04:08:43;53.72;;;30.63;;
45198;SDS011;30941;46.422;18.772;2023-02-23T04:14:17;45.45;;;26.17;;
45198;SDS011;30941;46.422;18.772;2023-02-23T04:16:46;45.05;;;25.73;;
45198;SDS011;30941;46.422;18.772;2023-02-23T04:19:12;43.97;;;24.17;;
45198;SDS011;30941;46.422;18.772;2023-02-23T04:21:37;38.60;;;24.15;;
45198;SDS011;30941;46.422;18.772;2023-02-23T04:24:03;46.28;;;24.27;;
45198;SDS011;30941;46.422;18.772;2023-02-23T04:26:28;45.13;;;24.08;;
45198;SDS011;30941;46.422;18.772;2023-02-23T04:28:54;39.70;;;22.73;;
45198;SDS011;30941;46.422;18.772;2023-02-23T04:31:19;40.08;;;23.08;;
45198;SDS011;30941;46.422;18.772;2023-02-23T04:33:47;43.00;;;24.50;;
45198;SDS011;30941;46.422;18.772;2023-02-23T04:36:12;40.78;;;24.80;;
45198;SDS011;30941;46.422;18.772;2023-02-23T04:38:38;42.05;;;24.23;;
45198;SDS011;30941;46.422;18.772;2023-02-23T04:41:03;42.83;;;23.25;;
45198;SDS011;30941;46.422;18.772;2023-02-23T04:43:28;43.63;;;24.75;;
45198;SDS011;30941;46.422;18.772;2023-02-23T04:45:54;42.25;;;24.00;;
45198;SDS011;30941;46.422;18.772;2023-02-23T04:48:19;34.58;;;21.38;;
45198;SDS011;30941;46.422;18.772;2023-02-23T04:50:45;43.10;;;24.20;;
45198;SDS011;30941;46.422;18.772;2023-02-23T04:53:10;41.65;;;23.75;;
45198;SDS011;30941;46.422;18.772;2023-02-23T04:55:36;37.42;;;22.70;;
45198;SDS011;30941;46.422;18.772;2023-02-23T04:58:01;40.05;;;22.98;;
45198;SDS011;30941;46.422;18.772;2023-02-23T05:00:27;40.53;;;23.10;;
45198;SDS011;30941;46.422;18.772;2023-02-23T05:02:53;34.22;;;21.63;;
45198;SDS011;30941;46.422;18.772;2023-02-23T05:05:19;40.15;;;22.63;;
45198;SDS011;30941;46.422;18.772;2023-02-23T05:07:45;37.13;;;21.70;;
45198;SDS011;30941;46.422;18.772;2023-02-23T05:10:11;42.45;;;23.60;;
45198;SDS011;30941;46.422;18.772;2023-02-23T05:12:36;41.65;;;24.00;;
45198;SDS011;30941;46.422;18.772;2023-02-23T05:15:02;41.42;;;22.90;;
45198;SDS011;30941;46.422;18.772;2023-02-23T05:17:28;41.13;;;22.42;;
45198;SDS011;30941;46.422;18.772;2023-02-23T05:19:53;38.78;;;21.83;;
45198;SDS011;30941;46.422;18.772;2023-02-23T05:22:18;36.40;;;21.80;;
45198;SDS011;30941;46.422;18.772;2023-02-23T05:24:44;36.58;;;21.85;;
45198;SDS011;30941;46.422;18.772;2023-02-23T05:27:10;42.05;;;22.75;;
45198;SDS011;30941;46.422;18.772;2023-02-23T05:29:38;39.85;;;21.80;;
45198;SDS011;30941;46.422;18.772;2023-02-23T05:32:03;40.30;;;22.30;;
45198;SDS011;30941;46.422;18.772;2023-02-23T05:34:29;31.95;;;20.90;;
45198;SDS011;30941;46.422;18.772;2023-02-23T05:36:54;39.92;;;21.45;;
45198;SDS011;30941;46.422;18.772;2023-02-23T05:39:20;41.85;;;21.20;;
45198;SDS011;30941;46.422;18.772;2023-02-23T05:41:45;47.20;;;22.40;;
45198;SDS011;30941;46.422;18.772;2023-02-23T05:44:11;34.08;;;21.25;;
45198;SDS011;30941;46.422;18.772;2023-02-23T05:46:36;37.72;;;22.25;;
45198;SDS011;30941;46.422;18.772;2023-02-23T05:49:02;41.63;;;23.02;;
45198;SDS011;30941;46.422;18.772;2023-02-23T05:51:28;38.33;;;22.38;;
45198;SDS011;30941;46.422;18.772;2023-02-23T05:53:54;41.60;;;23.33;;
45198;SDS011;30941;46.422;18.772;2023-02-23T05:56:20;54.40;;;25.35;;
45198;SDS011;30941;46.422;18.772;2023-02-23T05:58:49;41.28;;;22.80;;
45198;SDS011;30941;46.422;18.772;2023-02-23T06:01:17;40.13;;;23.45;;
45198;SDS011;30941;46.422;18.772;2023-02-23T06:03:43;38.53;;;23.48;;
45198;SDS011;30941;46.422;18.772;2023-02-23T06:06:08;43.88;;;24.13;;
45198;SDS011;30941;46.422;18.772;2023-02-23T06:08:34;48.60;;;27.20;;
45198;SDS011;30941;46.422;18.772;2023-02-23T06:10:59;52.97;;;29.08;;
45198;SDS011;30941;46.422;18.772;2023-02-23T06:13:25;55.17;;;31.73;;
45198;SDS011;30941;46.422;18.772;2023-02-23T06:15:51;48.10;;;29.10;;
45198;SDS011;30941;46.422;18.772;2023-02-23T06:18:16;50.83;;;28.40;;
45198;SDS011;30941;46.422;18.772;2023-02-23T06:20:42;46.50;;;29.77;;
45198;SDS011;30941;46.422;18.772;2023-02-23T06:23:07;45.97;;;28.35;;
45198;SDS011;30941;46.422;18.772;2023-02-23T06:25:33;49.22;;;27.77;;
45198;SDS011;30941;46.422;18.772;2023-02-23T06:27:59;47.25;;;25.70;;
45198;SDS011;30941;46.422;18.772;2023-02-23T06:30:24;50.03;;;27.23;;
45198;SDS011;30941;46.422;18.772;2023-02-23T06:32:49;49.28;;;27.30;;
45198;SDS011;30941;46.422;18.772;2023-02-23T06:35:15;48.33;;;26.38;;
45198;SDS011;30941;46.422;18.772;2023-02-23T06:37:40;45.05;;;27.25;;
45198;SDS011;30941;46.422;18.772;2023-02-23T06:40:07;61.22;;;28.20;;
45198;SDS011;30941;46.422;18.772;2023-02-23T06:42:33;50.40;;;26.77;;
45198;SDS011;30941;46.422;18.772;2023-02-23T06:45:00;52.78;;;27.77;;
45198;SDS011;30941;46.422;18.772;2023-02-23T06:47:25;61.35;;;28.88;;
45198;SDS011;30941;46.422;18.772;2023-02-23T06:49:51;54.83;;;27.42;;
45198;SDS011;30941;46.422;18.772;2023-02-23T06:52:16;61.72;;;30.42;;
45198;SDS011;30941;46.422;18.772;2023-02-23T06:54:41;57.60;;;28.88;;
45198;SDS011;30941;46.422;18.772;2023-02-23T06:57:07;65.50;;;31.80;;
45198;SDS011;30941;46.422;18.772;2023-02-23T06:59:33;59.35;;;32.30;;
45198;SDS011;30941;46.422;18.772;2023-02-23T07:02:00;62.95;;;31.27;;
45198;SDS011;30941;46.422;18.772;2023-02-23T07:04:28;54.45;;;29.65;;
45198;SDS011;30941;46.422;18.772;2023-02-23T07:06:54;47.97;;;27.00;;
45198;SDS011;30941;46.422;18.772;2023-02-23T07:09:19;53.20;;;29.63;;
45198;SDS011;30941;46.422;18.772;2023-02-23T07:11:44;55.13;;;31.63;;
45198;SDS011;30941;46.422;18.772;2023-02-23T07:14:10;54.80;;;31.13;;
45198;SDS011;30941;46.422;18.772;2023-02-23T07:16:36;53.47;;;30.38;;
45198;SDS011;30941;46.422;18.772;2023-02-23T07:19:02;48.53;;;29.50;;
45198;SDS011;30941;46.422;18.772;2023-02-23T07:21:28;48.55;;;25.63;;
45198;SDS011;30941;46.422;18.772;2023-02-23T07:23:56;44.35;;;24.65;;
45198;SDS011;30941;46.422;18.772;2023-02-23T07:26:21;45.40;;;24.77;;
45198;SDS011;30941;46.422;18.772;2023-02-23T07:28:46;39.75;;;23.63;;
45198;SDS011;30941;46.422;18.772;2023-02-23T07:31:12;41.47;;;23.90;;
45198;SDS011;30941;46.422;18.772;2023-02-23T07:33:37;43.20;;;26.05;;
45198;SDS011;30941;46.422;18.772;2023-02-23T07:36:03;40.30;;;24.90;;
45198;SDS011;30941;46.422;18.772;2023-02-23T07:38:28;45.88;;;23.83;;
45198;SDS011;30941;46.422;18.772;2023-02-23T07:40:54;39.72;;;23.70;;
45198;SDS011;30941;46.422;18.772;2023-02-23T07:43:19;43.08;;;23.75;;
45198;SDS011;30941;46.422;18.772;2023-02-23T07:45:46;42.10;;;24.02;;
45198;SDS011;30941;46.422;18.772;2023-02-23T07:48:12;40.28;;;22.83;;
45198;SDS011;30941;46.422;18.772;2023-02-23T07:50:38;40.63;;;23.30;;
45198;SDS011;30941;46.422;18.772;2023-02-23T07:53:04;34.70;;;21.27;;
45198;SDS011;30941;46.422;18.772;2023-02-23T07:55:30;39.33;;;23.15;;
45198;SDS011;30941;46.422;18.772;2023-02-23T07:57:55;37.00;;;21.65;;
45198;SDS011;30941;46.422;18.772;2023-02-23T08:00:21;27.27;;;16.42;;
45198;SDS011;30941;46.422;18.772;2023-02-23T08:02:46;31.67;;;19.00;;
45198;SDS011;30941;46.422;18.772;2023-02-23T08:05:12;29.60;;;18.30;;
45198;SDS011;30941;46.422;18.772;2023-02-23T08:07:38;33.33;;;19.80;;
45198;SDS011;30941;46.422;18.772;2023-02-23T08:10:04;34.08;;;18.10;;
45198;SDS011;30941;46.422;18.772;2023-02-23T08:12:30;30.30;;;18.75;;
45198;SDS011;30941;46.422;18.772;2023-02-23T08:14:58;39.13;;;21.42;;
45198;SDS011;30941;46.422;18.772;2023-02-23T08:17:23;31.30;;;19.33;;
45198;SDS011;30941;46.422;18.772;2023-02-23T08:19:48;33.88;;;18.38;;
45198;SDS011;30941;46.422;18.772;2023-02-23T08:22:14;32.47;;;18.30;;
45198;SDS011;30941;46.422;18.772;2023-02-23T08:24:39;32.13;;;18.17;;
45198;SDS011;30941;46.422;18.772;2023-02-23T08:27:05;32.05;;;18.75;;
45198;SDS011;30941;46.422;18.772;2023-02-23T08:29:30;33.58;;;18.00;;
45198;SDS011;30941;46.422;18.772;2023-02-23T08:31:56;29.55;;;18.15;;
45198;SDS011;30941;46.422;18.772;2023-02-23T08:34:21;30.98;;;20.00;;
45198;SDS011;30941;46.422;18.772;2023-02-23T08:36:47;30.17;;;17.48;;
45198;SDS011;30941;46.422;18.772;2023-02-23T08:39:13;27.52;;;15.93;;
45198;SDS011;30941;46.422;18.772;2023-02-23T08:41:39;25.77;;;15.35;;
45198;SDS011;30941;46.422;18.772;2023-02-23T08:44:05;27.42;;;16.13;;
45198;SDS011;30941;46.422;18.772;2023-02-23T08:46:30;32.15;;;16.38;;
45198;SDS011;30941;46.422;18.772;2023-02-23T08:48:56;29.67;;;15.75;;
45198;SDS011;30941;46.422;18.772;2023-02-23T08:51:21;29.65;;;16.10;;
45198;SDS011;30941;46.422;18.772;2023-02-23T08:53:47;26.83;;;15.10;;
45198;SDS011;30941;46.422;18.772;2023-02-23T08:56:12;25.58;;;14.57;;
45198;SDS011;30941;46.422;18.772;2023-02-23T08:58:39;32.58;;;16.67;;
45198;SDS011;30941;46.422;18.772;2023-02-23T09:01:05;24.13;;;13.98;;
45198;SDS011;30941;46.422;18.772;2023-02-23T09:03:31;24.85;;;14.38;;
45198;SDS011;30941;46.422;18.772;2023-02-23T09:05:57;26.15;;;15.38;;
45198;SDS011;30941;46.422;18.772;2023-02-23T09:08:31;27.85;;;15.95;;
45198;SDS011;30941;46.422;18.772;2023-02-23T09:10:56;37.03;;;15.85;;
45198;SDS011;30941;46.422;18.772;2023-02-23T09:13:21;25.13;;;14.70;;
45198;SDS011;30941;46.422;18.772;2023-02-23T09:15:47;30.55;;;14.88;;
45198;SDS011;30941;46.422;18.772;2023-02-23T09:18:12;30.63;;;15.07;;
45198;SDS011;30941;46.422;18.772;2023-02-23T09:20:42;28.05;;;15.38;;
45198;SDS011;30941;46.422;18.772;2023-02-23T09:23:08;31.83;;;15.15;;
45198;SDS011;30941;46.422;18.772;2023-02-23T09:25:37;26.15;;;15.60;;
45198;SDS011;30941;46.422;18.772;2023-02-23T09:28:16;31.40;;;14.65;;
45198;SDS011;30941;46.422;18.772;2023-02-23T09:30:42;27.73;;;14.55;;
45198;SDS011;30941;46.422;18.772;2023-02-23T09:33:08;30.38;;;16.15;;
45198;SDS011;30941;46.422;18.772;2023-02-23T09:35:34;27.25;;;13.98;;
45198;SDS011;30941;46.422;18.772;2023-02-23T09:38:00;28.42;;;15.40;;
45198;SDS011;30941;46.422;18.772;2023-02-23T09:48:55;24.88;;;15.73;;
45198;SDS011;30941;46.422;18.772;2023-02-23T09:51:23;26.13;;;13.27;;
45198;SDS011;30941;46.422;18.772;2023-02-23T09:53:52;24.92;;;13.23;;
45198;SDS011;30941;46.422;18.772;2023-02-23T09:56:33;30.85;;;13.80;;
45198;SDS011;30941;46.422;18.772;2023-02-23T09:59:01;24.10;;;13.35;;
45198;SDS011;30941;46.422;18.772;2023-02-23T10:07:12;24.90;;;13.77;;
45198;SDS011;30941;46.422;18.772;2023-02-23T10:12:37;25.13;;;13.43;;
45198;SDS011;30941;46.422;18.772;2023-02-23T10:15:11;22.33;;;13.77;;
45198;SDS011;30941;46.422;18.772;2023-02-23T10:23:02;21.88;;;11.98;;
45198;SDS011;30941;46.422;18.772;2023-02-23T10:25:32;24.38;;;13.05;;
45198;SDS011;30941;46.422;18.772;2023-02-23T10:28:00;27.45;;;12.77;;
45198;SDS011;30941;46.422;18.772;2023-02-23T10:30:31;27.42;;;12.88;;
45198;SDS011;30941;46.422;18.772;2023-02-23T10:33:03;18.80;;;12.07;;
45198;SDS011;30941;46.422;18.772;2023-02-23T10:35:35;24.45;;;11.43;;
45198;SDS011;30941;46.422;18.772;2023-02-23T10:38:01;18.25;;;11.77;;
45198;SDS011;30941;46.422;18.772;2023-02-23T10:40:28;22.85;;;11.85;;
45198;SDS011;30941;46.422;18.772;2023-02-23T10:42:57;20.35;;;12.43;;
45198;SDS011;30941;46.422;18.772;2023-02-23T10:45:29;19.80;;;12.65;;
45198;SDS011;30941;46.422;18.772;2023-02-23T10:50:37;21.65;;;12.77;;
45198;SDS011;30941;46.422;18.772;2023-02-23T10:53:08;19.65;;;13.07;;
45198;SDS011;30941;46.422;18.772;2023-02-23T10:55:35;21.17;;;12.43;;
45198;SDS011;30941;46.422;18.772;2023-02-23T11:00:39;19.35;;;12.48;;
45198;SDS011;30941;46.422;18.772;2023-02-23T11:03:15;21.15;;;12.05;;
45198;SDS011;30941;46.422;18.772;2023-02-23T11:05:46;18.85;;;12.68;;
45198;SDS011;30941;46.422;18.772;2023-02-23T11:08:23;24.65;;;13.90;;
45198;SDS011;30941;46.422;18.772;2023-02-23T11:16:13;19.48;;;11.60;;
45198;SDS011;30941;46.422;18.772;2023-02-23T11:18:40;18.80;;;12.55;;
45198;SDS011;30941;46.422;18.772;2023-02-23T11:21:11;19.30;;;11.77;;
45198;SDS011;30941;46.422;18.772;2023-02-23T11:23:38;19.13;;;12.95;;
45198;SDS011;30941;46.422;18.772;2023-02-23T11:28:54;20.42;;;13.05;;
45198;SDS011;30941;46.422;18.772;2023-02-23T11:31:22;23.88;;;13.07;;
45198;SDS011;30941;46.422;18.772;2023-02-23T11:33:54;27.52;;;13.27;;
45198;SDS011;30941;46.422;18.772;2023-02-23T11:41:42;21.75;;;13.10;;
45198;SDS011;30941;46.422;18.772;2023-02-23T11:44:17;22.42;;;12.52;;
45198;SDS011;30941;46.422;18.772;2023-02-23T11:46:49;18.02;;;11.63;;
45198;SDS011;30941;46.422;18.772;2023-02-23T11:49:23;22.33;;;13.45;;
45198;SDS011;30941;46.422;18.772;2023-02-23T11:51:54;17.40;;;12.10;;
45198;SDS011;30941;46.422;18.772;2023-02-23T11:56:47;17.55;;;11.80;;
45198;SDS011;30941;46.422;18.772;2023-02-23T11:59:19;16.70;;;11.38;;
45198;SDS011;30941;46.422;18.772;2023-02-23T12:01:50;19.30;;;12.02;;
45198;SDS011;30941;46.422;18.772;2023-02-23T12:04:31;18.48;;;11.55;;
45198;SDS011;30941;46.422;18.772;2023-02-23T12:09:41;18.15;;;11.43;;
45198;SDS011;30941;46.422;18.772;2023-02-23T12:12:11;18.20;;;11.18;;
45198;SDS011;30941;46.422;18.772;2023-02-23T12:17:12;19.13;;;10.93;;
45198;SDS011;30941;46.422;18.772;2023-02-23T12:20:03;17.38;;;11.65;;
45198;SDS011;30941;46.422;18.772;2023-02-23T12:22:35;16.92;;;11.07;;
45198;SDS011;30941;46.422;18.772;2023-02-23T12:25:05;19.00;;;11.45;;
45198;SDS011;30941;46.422;18.772;2023-02-23T12:27:43;16.35;;;9.25;;
45198;SDS011;30941;46.422;18.772;2023-02-23T12:30:26;15.57;;;10.23;;
45198;SDS011;30941;46.422;18.772;2023-02-23T12:32:57;17.83;;;10.52;;
45198;SDS011;30941;46.422;18.772;2023-02-23T12:40:27;17.75;;;10.15;;
45198;SDS011;30941;46.422;18.772;2023-02-23T12:50:41;17.70;;;9.73;;
45198;SDS011;30941;46.422;18.772;2023-02-23T12:55:54;17.27;;;9.65;;
45198;SDS011;30941;46.422;18.772;2023-02-23T13:01:20;17.85;;;9.23;;
45198;SDS011;30941;46.422;18.772;2023-02-23T13:16:59;15.13;;;8.00;;
45198;SDS011;30941;46.422;18.772;2023-02-23T13:19:40;12.90;;;8.85;;
45198;SDS011;30941;46.422;18.772;2023-02-23T13:22:25;13.13;;;8.80;;
45198;SDS011;30941;46.422;18.772;2023-02-23T13:24:55;15.02;;;8.90;;
45198;SDS011;30941;46.422;18.772;2023-02-23T13:27:27;15.32;;;8.65;;
45198;SDS011;30941;46.422;18.772;2023-02-23T13:30:15;13.80;;;9.48;;
45198;SDS011;30941;46.422;18.772;2023-02-23T13:32:41;18.52;;;9.32;;
45198;SDS011;30941;46.422;18.772;2023-02-23T13:35:09;14.20;;;8.05;;
45198;SDS011;30941;46.422;18.772;2023-02-23T13:37:44;16.15;;;8.95;;
45198;SDS011;30941;46.422;18.772;2023-02-23T13:46:03;14.05;;;8.80;;
45198;SDS011;30941;46.422;18.772;2023-02-23T13:51:31;11.73;;;7.80;;
45198;SDS011;30941;46.422;18.772;2023-02-23T13:54:02;18.67;;;9.00;;
45198;SDS011;30941;46.422;18.772;2023-02-23T13:56:41;13.60;;;8.23;;
45198;SDS011;30941;46.422;18.772;2023-02-23T13:59:15;13.70;;;8.45;;
45198;SDS011;30941;46.422;18.772;2023-02-23T14:01:43;13.38;;;7.63;;
45198;SDS011;30941;46.422;18.772;2023-02-23T14:04:13;12.45;;;8.15;;
45198;SDS011;30941;46.422;18.772;2023-02-23T14:06:48;13.57;;;8.52;;
45198;SDS011;30941;46.422;18.772;2023-02-23T14:10:06;15.20;;;8.27;;
45198;SDS011;30941;46.422;18.772;2023-02-23T14:12:22;12.70;;;7.78;;
45198;SDS011;30941;46.422;18.772;2023-02-23T14:14:47;11.43;;;7.65;;
45198;SDS011;30941;46.422;18.772;2023-02-23T14:22:25;14.55;;;9.18;;
45198;SDS011;30941;46.422;18.772;2023-02-23T14:28:00;12.45;;;8.27;;
45198;SDS011;30941;46.422;18.772;2023-02-23T14:30:46;13.80;;;7.82;;
45198;SDS011;30941;46.422;18.772;2023-02-23T14:34:03;10.15;;;7.18;;
45198;SDS011;30941;46.422;18.772;2023-02-23T14:41:24;12.55;;;7.18;;
45198;SDS011;30941;46.422;18.772;2023-02-23T14:44:05;16.02;;;8.40;;
45198;SDS011;30941;46.422;18.772;2023-02-23T14:46:31;13.65;;;8.55;;
45198;SDS011;30941;46.422;18.772;2023-02-23T14:49:06;12.20;;;7.60;;
45198;SDS011;30941;46.422;18.772;2023-02-23T14:51:40;11.23;;;7.22;;
45198;SDS011;30941;46.422;18.772;2023-02-23T14:56:46;16.33;;;6.97;;
45198;SDS011;30941;46.422;18.772;2023-02-23T14:59:17;12.45;;;6.90;;
45198;SDS011;30941;46.422;18.772;2023-02-23T15:01:45;10.70;;;7.25;;
45198;SDS011;30941;46.422;18.772;2023-02-23T15:04:22;12.05;;;6.80;;
45198;SDS011;30941;46.422;18.772;2023-02-23T15:06:51;12.38;;;6.60;;
45198;SDS011;30941;46.422;18.772;2023-02-23T15:09:20;12.52;;;7.65;;
45198;SDS011;30941;46.422;18.772;2023-02-23T15:11:49;11.35;;;7.10;;
45198;SDS011;30941;46.422;18.772;2023-02-23T15:14:18;15.68;;;7.53;;
45198;SDS011;30941;46.422;18.772;2023-02-23T15:16:44;11.13;;;7.32;;
45198;SDS011;30941;46.422;18.772;2023-02-23T15:19:28;13.55;;;7.50;;
45198;SDS011;30941;46.422;18.772;2023-02-23T15:21:59;11.93;;;7.18;;
45198;SDS011;30941;46.422;18.772;2023-02-23T15:24:27;16.33;;;7.82;;
45198;SDS011;30941;46.422;18.772;2023-02-23T15:26:55;13.88;;;7.88;;
45198;SDS011;30941;46.422;18.772;2023-02-23T15:29:22;13.35;;;7.38;;
45198;SDS011;30941;46.422;18.772;2023-02-23T15:31:50;12.05;;;7.15;;
45198;SDS011;30941;46.422;18.772;2023-02-23T15:34:18;15.93;;;7.07;;
45198;SDS011;30941;46.422;18.772;2023-02-23T15:36:56;10.68;;;7.00;;
45198;SDS011;30941;46.422;18.772;2023-02-23T15:42:04;11.27;;;6.75;;
45198;SDS011;30941;46.422;18.772;2023-02-23T15:44:30;29.73;;;14.88;;
45198;SDS011;30941;46.422;18.772;2023-02-23T15:47:02;13.73;;;7.55;;
45198;SDS011;30941;46.422;18.772;2023-02-23T15:49:33;12.93;;;6.55;;
45198;SDS011;30941;46.422;18.772;2023-02-23T15:52:02;11.88;;;6.32;;
45198;SDS011;30941;46.422;18.772;2023-02-23T15:54:34;16.33;;;8.00;;
45198;SDS011;30941;46.422;18.772;2023-02-23T15:57:06;16.63;;;6.63;;
45198;SDS011;30941;46.422;18.772;2023-02-23T15:59:38;14.05;;;7.40;;
45198;SDS011;30941;46.422;18.772;2023-02-23T16:02:11;12.60;;;7.22;;
45198;SDS011;30941;46.422;18.772;2023-02-23T16:04:42;11.43;;;6.93;;
45198;SDS011;30941;46.422;18.772;2023-02-23T16:07:26;15.02;;;8.35;;
45198;SDS011;30941;46.422;18.772;2023-02-23T16:10:38;16.50;;;8.05;;
45198;SDS011;30941;46.422;18.772;2023-02-23T16:12:51;11.18;;;7.68;;
45198;SDS011;30941;46.422;18.772;2023-02-23T16:15:27;19.40;;;7.90;;
45198;SDS011;30941;46.422;18.772;2023-02-23T16:18:00;10.77;;;7.10;;
45198;SDS011;30941;46.422;18.772;2023-02-23T16:20:29;12.63;;;7.60;;
45198;SDS011;30941;46.422;18.772;2023-02-23T16:22:59;14.77;;;8.30;;
45198;SDS011;30941;46.422;18.772;2023-02-23T16:25:27;13.35;;;8.60;;
45198;SDS011;30941;46.422;18.772;2023-02-23T16:27:58;15.05;;;8.40;;
45198;SDS011;30941;46.422;18.772;2023-02-23T16:33:44;19.60;;;9.38;;
45198;SDS011;30941;46.422;18.772;2023-02-23T16:38:35;12.45;;;7.70;;
45198;SDS011;30941;46.422;18.772;2023-02-23T16:41:17;14.43;;;8.05;;
45198;SDS011;30941;46.422;18.772;2023-02-23T16:43:44;12.75;;;7.35;;
45198;SDS011;30941;46.422;18.772;2023-02-23T16:46:12;16.67;;;8.05;;
45198;SDS011;30941;46.422;18.772;2023-02-23T16:48:39;14.77;;;8.20;;
45198;SDS011;30941;46.422;18.772;2023-02-23T16:51:12;18.85;;;10.00;;
45198;SDS011;30941;46.422;18.772;2023-02-23T16:53:42;22.95;;;14.63;;
45198;SDS011;30941;46.422;18.772;2023-02-23T16:56:09;17.00;;;8.60;;
45198;SDS011;30941;46.422;18.772;2023-02-23T16:58:38;17.67;;;8.40;;
45198;SDS011;30941;46.422;18.772;2023-02-23T17:01:16;15.57;;;8.07;;
45198;SDS011;30941;46.422;18.772;2023-02-23T17:03:42;14.82;;;10.85;;
45198;SDS011;30941;46.422;18.772;2023-02-23T17:06:09;14.55;;;7.78;;
45198;SDS011;30941;46.422;18.772;2023-02-23T17:08:35;16.27;;;8.45;;
45198;SDS011;30941;46.422;18.772;2023-02-23T17:11:02;24.20;;;10.00;;
45198;SDS011;30941;46.422;18.772;2023-02-23T17:13:30;19.83;;;9.20;;
45198;SDS011;30941;46.422;18.772;2023-02-23T17:16:00;18.92;;;9.93;;
45198;SDS011;30941;46.422;18.772;2023-02-23T17:18:30;16.50;;;8.95;;
45198;SDS011;30941;46.422;18.772;2023-02-23T17:20:58;18.67;;;9.35;;